sensor_id;sensor_type;location;lat;lon;timestamp;temperature;humidity
58809;DHT22;44579;51.672;7.834;2022-09-09T00:00:46;17.80;73.50
58809;DHT22;44579;51.672;7.834;2022-09-09T00:03:17;17.80;73.50
58809;DHT22;44579;51.672;7.834;2022-09-09T00:06:18;17.90;73.50
58809;DHT22;44579;51.672;7.834;2022-09-09T00:08:53;17.90;73.40
58809;DHT22;44579;51.672;7.834;2022-09-09T00:11:36;17.90;73.60
58809;DHT22;44579;51.672;7.834;2022-09-09T00:17:01;17.80;73.70
58809;DHT22;44579;51.672;7.834;2022-09-09T00:22:17;17.70;73.90
58809;DHT22;44579;51.672;7.834;2022-09-09T00:24:55;17.70;73.90
58809;DHT22;44579;51.672;7.834;2022-09-09T00:27:33;17.80;74.10
58809;DHT22;44579;51.672;7.834;2022-09-09T00:30:26;17.70;74.00
58809;DHT22;44579;51.672;7.834;2022-09-09T00:32:57;17.70;74.10
58809;DHT22;44579;51.672;7.834;2022-09-09T00:35:36;17.70;74.10
58809;DHT22;44579;51.672;7.834;2022-09-09T00:41:10;17.80;74.20
58809;DHT22;44579;51.672;7.834;2022-09-09T00:43:40;17.70;74.20
58809;DHT22;44579;51.672;7.834;2022-09-09T00:52:12;17.70;74.40
58809;DHT22;44579;51.672;7.834;2022-09-09T00:54:59;17.70;74.50
58809;DHT22;44579;51.672;7.834;2022-09-09T00:57:31;17.70;74.50
58809;DHT22;44579;51.672;7.834;2022-09-09T01:00:27;17.60;74.50
58809;DHT22;44579;51.672;7.834;2022-09-09T01:06:22;17.60;74.80
58809;DHT22;44579;51.672;7.834;2022-09-09T01:09:02;17.60;74.90
58809;DHT22;44579;51.672;7.834;2022-09-09T01:11:59;17.50;74.90
58809;DHT22;44579;51.672;7.834;2022-09-09T01:17:15;17.50;75.00
58809;DHT22;44579;51.672;7.834;2022-09-09T01:20:02;17.50;75.00
58809;DHT22;44579;51.672;7.834;2022-09-09T01:28:09;17.40;75.30
58809;DHT22;44579;51.672;7.834;2022-09-09T01:30:40;17.40;75.30
58809;DHT22;44579;51.672;7.834;2022-09-09T01:33:14;17.40;75.30
58809;DHT22;44579;51.672;7.834;2022-09-09T01:35:48;17.40;75.40
58809;DHT22;44579;51.672;7.834;2022-09-09T01:38:18;17.40;75.40
58809;DHT22;44579;51.672;7.834;2022-09-09T01:40:47;17.40;75.40
58809;DHT22;44579;51.672;7.834;2022-09-09T01:43:14;17.50;75.40
58809;DHT22;44579;51.672;7.834;2022-09-09T01:45:42;17.50;75.50
58809;DHT22;44579;51.672;7.834;2022-09-09T01:48:10;17.40;75.40
58809;DHT22;44579;51.672;7.834;2022-09-09T01:50:46;17.40;75.50
58809;DHT22;44579;51.672;7.834;2022-09-09T01:53:15;17.50;75.60
58809;DHT22;44579;51.672;7.834;2022-09-09T01:56:02;17.40;75.60
58809;DHT22;44579;51.672;7.834;2022-09-09T02:04:05;17.40;76.00
58809;DHT22;44579;51.672;7.834;2022-09-09T02:06:37;17.40;76.00
58809;DHT22;44579;51.672;7.834;2022-09-09T02:09:19;17.30;75.90
58809;DHT22;44579;51.672;7.834;2022-09-09T02:11:57;17.30;76.00
58809;DHT22;44579;51.672;7.834;2022-09-09T02:14:42;17.20;76.00
58809;DHT22;44579;51.672;7.834;2022-09-09T02:17:12;17.20;76.10
58809;DHT22;44579;51.672;7.834;2022-09-09T02:20:13;17.10;76.20
58809;DHT22;44579;51.672;7.834;2022-09-09T02:22:49;17.10;76.30
58809;DHT22;44579;51.672;7.834;2022-09-09T02:25:21;17.00;76.40
58809;DHT22;44579;51.672;7.834;2022-09-09T02:27:50;17.00;76.60
58809;DHT22;44579;51.672;7.834;2022-09-09T02:30:21;16.90;76.50
58809;DHT22;44579;51.672;7.834;2022-09-09T02:32:54;16.90;76.60
58809;DHT22;44579;51.672;7.834;2022-09-09T02:35:43;16.90;76.80
58809;DHT22;44579;51.672;7.834;2022-09-09T02:38:13;16.90;76.90
58809;DHT22;44579;51.672;7.834;2022-09-09T02:40:53;16.90;77.00
58809;DHT22;44579;51.672;7.834;2022-09-09T02:43:20;16.90;77.00
58809;DHT22;44579;51.672;7.834;2022-09-09T02:49:09;16.90;77.00
58809;DHT22;44579;51.672;7.834;2022-09-09T02:51:53;16.80;77.10
58809;DHT22;44579;51.672;7.834;2022-09-09T02:54:27;16.90;77.20
58809;DHT22;44579;51.672;7.834;2022-09-09T02:57:13;16.90;77.20
58809;DHT22;44579;51.672;7.834;2022-09-09T02:59:45;17.00;77.30
58809;DHT22;44579;51.672;7.834;2022-09-09T03:02:13;17.00;77.20
58809;DHT22;44579;51.672;7.834;2022-09-09T03:04:42;17.00;77.20
58809;DHT22;44579;51.672;7.834;2022-09-09T03:07:20;17.10;77.30
58809;DHT22;44579;51.672;7.834;2022-09-09T03:09:49;17.10;78.20
58809;DHT22;44579;51.672;7.834;2022-09-09T03:12:16;17.10;77.30
58809;DHT22;44579;51.672;7.834;2022-09-09T03:14:43;17.20;77.30
58809;DHT22;44579;51.672;7.834;2022-09-09T03:17:12;17.20;77.30
58809;DHT22;44579;51.672;7.834;2022-09-09T03:19:45;17.30;78.30
58809;DHT22;44579;51.672;7.834;2022-09-09T03:22:12;17.30;77.40
58809;DHT22;44579;51.672;7.834;2022-09-09T03:24:41;17.30;77.30
58809;DHT22;44579;51.672;7.834;2022-09-09T03:27:08;17.30;77.30
58809;DHT22;44579;51.672;7.834;2022-09-09T03:29:37;17.30;77.20
58809;DHT22;44579;51.672;7.834;2022-09-09T03:32:07;17.40;77.40
58809;DHT22;44579;51.672;7.834;2022-09-09T03:34:37;17.40;77.50
58809;DHT22;44579;51.672;7.834;2022-09-09T03:37:10;17.40;77.50
58809;DHT22;44579;51.672;7.834;2022-09-09T03:39:37;17.40;77.40
58809;DHT22;44579;51.672;7.834;2022-09-09T03:42:04;17.40;77.40
58809;DHT22;44579;51.672;7.834;2022-09-09T03:44:33;17.50;77.50
58809;DHT22;44579;51.672;7.834;2022-09-09T03:46:59;17.50;77.50
58809;DHT22;44579;51.672;7.834;2022-09-09T03:49:27;17.40;77.50
58809;DHT22;44579;51.672;7.834;2022-09-09T03:51:57;17.50;77.70
58809;DHT22;44579;51.672;7.834;2022-09-09T03:54:25;17.40;77.70
58809;DHT22;44579;51.672;7.834;2022-09-09T03:56:51;17.40;77.80
58809;DHT22;44579;51.672;7.834;2022-09-09T03:59:20;17.30;77.80
58809;DHT22;44579;51.672;7.834;2022-09-09T04:01:47;17.30;77.90
58809;DHT22;44579;51.672;7.834;2022-09-09T04:04:15;17.30;77.90
58809;DHT22;44579;51.672;7.834;2022-09-09T04:06:42;17.40;77.90
58809;DHT22;44579;51.672;7.834;2022-09-09T04:09:08;17.20;78.10
58809;DHT22;44579;51.672;7.834;2022-09-09T04:11:36;17.30;78.10
58809;DHT22;44579;51.672;7.834;2022-09-09T04:14:03;17.30;78.00
58809;DHT22;44579;51.672;7.834;2022-09-09T04:16:33;17.30;78.00
58809;DHT22;44579;51.672;7.834;2022-09-09T04:19:00;17.20;78.10
58809;DHT22;44579;51.672;7.834;2022-09-09T04:21:27;17.20;79.00
58809;DHT22;44579;51.672;7.834;2022-09-09T04:23:54;17.20;78.10
58809;DHT22;44579;51.672;7.834;2022-09-09T04:26:21;17.20;78.30
58809;DHT22;44579;51.672;7.834;2022-09-09T04:28:48;17.20;78.10
58809;DHT22;44579;51.672;7.834;2022-09-09T04:31:20;17.20;78.10
58809;DHT22;44579;51.672;7.834;2022-09-09T04:33:52;17.20;78.10
58809;DHT22;44579;51.672;7.834;2022-09-09T04:36:19;17.20;78.10
58809;DHT22;44579;51.672;7.834;2022-09-09T04:38:48;17.20;78.00
58809;DHT22;44579;51.672;7.834;2022-09-09T04:41:17;17.20;78.00
58809;DHT22;44579;51.672;7.834;2022-09-09T04:43:48;17.30;78.10
58809;DHT22;44579;51.672;7.834;2022-09-09T04:46:16;17.20;78.20
58809;DHT22;44579;51.672;7.834;2022-09-09T04:48:50;17.20;78.20
58809;DHT22;44579;51.672;7.834;2022-09-09T04:51:18;17.30;78.30
58809;DHT22;44579;51.672;7.834;2022-09-09T04:53:47;17.30;78.40
58809;DHT22;44579;51.672;7.834;2022-09-09T04:56:17;17.30;78.30
58809;DHT22;44579;51.672;7.834;2022-09-09T04:58:49;17.30;78.40
58809;DHT22;44579;51.672;7.834;2022-09-09T05:01:19;17.20;78.40
58809;DHT22;44579;51.672;7.834;2022-09-09T05:03:48;17.20;78.50
58809;DHT22;44579;51.672;7.834;2022-09-09T05:06:20;17.30;78.50
58809;DHT22;44579;51.672;7.834;2022-09-09T05:08:49;17.30;79.50
58809;DHT22;44579;51.672;7.834;2022-09-09T05:11:25;17.30;78.60
58809;DHT22;44579;51.672;7.834;2022-09-09T05:13:55;17.30;78.70
58809;DHT22;44579;51.672;7.834;2022-09-09T05:16:23;17.30;78.50
58809;DHT22;44579;51.672;7.834;2022-09-09T05:18:55;17.30;78.50
58809;DHT22;44579;51.672;7.834;2022-09-09T05:21:24;17.40;78.60
58809;DHT22;44579;51.672;7.834;2022-09-09T05:23:53;17.40;78.60
58809;DHT22;44579;51.672;7.834;2022-09-09T05:26:21;17.40;78.50
58809;DHT22;44579;51.672;7.834;2022-09-09T05:28:51;17.50;78.40
58809;DHT22;44579;51.672;7.834;2022-09-09T05:31:19;17.50;78.50
58809;DHT22;44579;51.672;7.834;2022-09-09T05:33:49;17.50;78.40
58809;DHT22;44579;51.672;7.834;2022-09-09T05:36:18;17.50;78.50
58809;DHT22;44579;51.672;7.834;2022-09-09T05:38:50;17.50;78.50
58809;DHT22;44579;51.672;7.834;2022-09-09T05:41:19;17.50;78.50
58809;DHT22;44579;51.672;7.834;2022-09-09T05:43:46;17.50;78.60
58809;DHT22;44579;51.672;7.834;2022-09-09T05:46:18;17.60;78.70
58809;DHT22;44579;51.672;7.834;2022-09-09T05:48:47;17.60;78.70
58809;DHT22;44579;51.672;7.834;2022-09-09T05:51:17;17.60;78.80
58809;DHT22;44579;51.672;7.834;2022-09-09T05:53:45;17.60;78.80
58809;DHT22;44579;51.672;7.834;2022-09-09T05:56:20;17.60;78.90
58809;DHT22;44579;51.672;7.834;2022-09-09T05:58:49;17.60;79.00
58809;DHT22;44579;51.672;7.834;2022-09-09T06:01:26;17.60;79.00
58809;DHT22;44579;51.672;7.834;2022-09-09T06:03:53;17.60;79.00
58809;DHT22;44579;51.672;7.834;2022-09-09T06:06:27;17.70;79.10
58809;DHT22;44579;51.672;7.834;2022-09-09T06:08:58;17.70;79.00
58809;DHT22;44579;51.672;7.834;2022-09-09T06:11:31;17.70;79.00
58809;DHT22;44579;51.672;7.834;2022-09-09T06:13:59;17.70;78.90
58809;DHT22;44579;51.672;7.834;2022-09-09T06:16:28;17.80;79.10
58809;DHT22;44579;51.672;7.834;2022-09-09T06:18:56;17.80;79.10
58809;DHT22;44579;51.672;7.834;2022-09-09T06:21:29;17.80;79.10
58809;DHT22;44579;51.672;7.834;2022-09-09T06:23:58;17.80;79.20
58809;DHT22;44579;51.672;7.834;2022-09-09T06:26:30;17.80;79.20
58809;DHT22;44579;51.672;7.834;2022-09-09T06:28:59;17.80;79.10
58809;DHT22;44579;51.672;7.834;2022-09-09T06:31:27;17.80;79.10
58809;DHT22;44579;51.672;7.834;2022-09-09T06:34:00;17.80;79.20
58809;DHT22;44579;51.672;7.834;2022-09-09T06:36:31;17.80;79.20
58809;DHT22;44579;51.672;7.834;2022-09-09T06:38:59;17.80;79.10
58809;DHT22;44579;51.672;7.834;2022-09-09T06:41:30;17.80;79.20
58809;DHT22;44579;51.672;7.834;2022-09-09T06:43:57;17.80;79.20
58809;DHT22;44579;51.672;7.834;2022-09-09T06:46:32;17.90;79.30
58809;DHT22;44579;51.672;7.834;2022-09-09T06:49:00;17.90;79.30
58809;DHT22;44579;51.672;7.834;2022-09-09T06:51:29;17.90;79.30
58809;DHT22;44579;51.672;7.834;2022-09-09T06:54:01;17.90;79.50
58809;DHT22;44579;51.672;7.834;2022-09-09T06:56:34;17.90;79.40
58809;DHT22;44579;51.672;7.834;2022-09-09T06:59:07;18.00;79.40
58809;DHT22;44579;51.672;7.834;2022-09-09T07:01:38;18.00;79.40
58809;DHT22;44579;51.672;7.834;2022-09-09T07:04:09;18.10;79.40
58809;DHT22;44579;51.672;7.834;2022-09-09T07:06:41;18.20;79.30
58809;DHT22;44579;51.672;7.834;2022-09-09T07:09:14;18.20;79.30
58809;DHT22;44579;51.672;7.834;2022-09-09T07:11:48;18.30;79.30
58809;DHT22;44579;51.672;7.834;2022-09-09T07:14:16;18.40;79.30
58809;DHT22;44579;51.672;7.834;2022-09-09T07:16:46;18.50;79.30
58809;DHT22;44579;51.672;7.834;2022-09-09T07:19:16;18.50;79.20
58809;DHT22;44579;51.672;7.834;2022-09-09T07:21:44;18.60;79.30
58809;DHT22;44579;51.672;7.834;2022-09-09T07:24:14;18.60;79.30
58809;DHT22;44579;51.672;7.834;2022-09-09T07:26:42;18.60;79.20
58809;DHT22;44579;51.672;7.834;2022-09-09T07:29:11;18.60;79.20
58809;DHT22;44579;51.672;7.834;2022-09-09T07:31:46;18.60;79.20
58809;DHT22;44579;51.672;7.834;2022-09-09T07:34:17;18.70;79.30
58809;DHT22;44579;51.672;7.834;2022-09-09T07:36:45;18.70;79.30
58809;DHT22;44579;51.672;7.834;2022-09-09T07:39:13;18.80;79.10
58809;DHT22;44579;51.672;7.834;2022-09-09T07:41:47;18.90;79.00
58809;DHT22;44579;51.672;7.834;2022-09-09T07:44:18;19.00;78.90
58809;DHT22;44579;51.672;7.834;2022-09-09T07:46:50;19.10;78.90
58809;DHT22;44579;51.672;7.834;2022-09-09T07:49:22;19.10;78.90
58809;DHT22;44579;51.672;7.834;2022-09-09T07:51:58;19.20;79.00
58809;DHT22;44579;51.672;7.834;2022-09-09T07:54:25;19.20;79.20
58809;DHT22;44579;51.672;7.834;2022-09-09T07:56:52;19.20;79.10
58809;DHT22;44579;51.672;7.834;2022-09-09T07:59:22;19.10;79.10
58809;DHT22;44579;51.672;7.834;2022-09-09T08:01:53;19.20;79.20
58809;DHT22;44579;51.672;7.834;2022-09-09T08:04:26;19.10;79.20
58809;DHT22;44579;51.672;7.834;2022-09-09T08:06:59;19.10;79.10
58809;DHT22;44579;51.672;7.834;2022-09-09T08:09:29;19.10;79.00
58809;DHT22;44579;51.672;7.834;2022-09-09T08:12:03;19.10;78.90
58809;DHT22;44579;51.672;7.834;2022-09-09T08:14:32;19.20;79.00
58809;DHT22;44579;51.672;7.834;2022-09-09T08:16:59;19.20;79.00
58809;DHT22;44579;51.672;7.834;2022-09-09T08:19:27;19.30;78.90
58809;DHT22;44579;51.672;7.834;2022-09-09T08:21:58;19.50;78.80
58809;DHT22;44579;51.672;7.834;2022-09-09T08:24:25;19.50;78.80
58809;DHT22;44579;51.672;7.834;2022-09-09T08:26:52;19.50;78.80
58809;DHT22;44579;51.672;7.834;2022-09-09T08:29:23;19.60;78.70
58809;DHT22;44579;51.672;7.834;2022-09-09T08:31:53;19.60;78.80
58809;DHT22;44579;51.672;7.834;2022-09-09T08:34:21;19.60;78.50
58809;DHT22;44579;51.672;7.834;2022-09-09T08:36:50;19.60;78.40
58809;DHT22;44579;51.672;7.834;2022-09-09T08:39:21;19.50;78.50
58809;DHT22;44579;51.672;7.834;2022-09-09T08:41:58;19.50;78.60
58809;DHT22;44579;51.672;7.834;2022-09-09T08:50:26;19.40;78.80
58809;DHT22;44579;51.672;7.834;2022-09-09T08:53:44;19.40;78.70
58809;DHT22;44579;51.672;7.834;2022-09-09T08:58:14;19.50;78.80
58809;DHT22;44579;51.672;7.834;2022-09-09T09:01:31;19.60;78.50
58809;DHT22;44579;51.672;7.834;2022-09-09T09:10:00;19.90;78.10
58809;DHT22;44579;51.672;7.834;2022-09-09T09:19:20;20.00;78.30
58809;DHT22;44579;51.672;7.834;2022-09-09T09:22:19;20.00;78.30
58809;DHT22;44579;51.672;7.834;2022-09-09T09:25:13;20.00;78.10
58809;DHT22;44579;51.672;7.834;2022-09-09T09:28:02;20.10;78.10
58809;DHT22;44579;51.672;7.834;2022-09-09T09:30:47;20.10;78.00
58809;DHT22;44579;51.672;7.834;2022-09-09T09:33:30;20.10;77.80
58809;DHT22;44579;51.672;7.834;2022-09-09T09:36:00;20.20;77.70
58809;DHT22;44579;51.672;7.834;2022-09-09T09:38:36;20.20;77.70
58809;DHT22;44579;51.672;7.834;2022-09-09T09:44:42;20.20;77.70
58809;DHT22;44579;51.672;7.834;2022-09-09T09:47:18;20.20;77.70
58809;DHT22;44579;51.672;7.834;2022-09-09T09:49:55;20.20;77.50
58809;DHT22;44579;51.672;7.834;2022-09-09T09:52:31;20.20;77.40
58809;DHT22;44579;51.672;7.834;2022-09-09T09:55:03;20.20;77.20
58809;DHT22;44579;51.672;7.834;2022-09-09T09:57:34;20.30;77.20
58809;DHT22;44579;51.672;7.834;2022-09-09T10:00:21;20.30;77.10
58809;DHT22;44579;51.672;7.834;2022-09-09T10:03:17;20.30;76.90
58809;DHT22;44579;51.672;7.834;2022-09-09T10:05:46;20.40;77.10
58809;DHT22;44579;51.672;7.834;2022-09-09T10:08:16;20.50;77.10
58809;DHT22;44579;51.672;7.834;2022-09-09T10:14:05;20.70;76.30
58809;DHT22;44579;51.672;7.834;2022-09-09T10:17:07;20.80;76.30
58809;DHT22;44579;51.672;7.834;2022-09-09T10:19:42;20.90;76.80
58809;DHT22;44579;51.672;7.834;2022-09-09T10:22:26;21.10;77.20
58809;DHT22;44579;51.672;7.834;2022-09-09T10:36:19;21.90;75.60
58809;DHT22;44579;51.672;7.834;2022-09-09T10:38:52;21.90;75.10
58809;DHT22;44579;51.672;7.834;2022-09-09T10:44:14;22.00;75.50
58809;DHT22;44579;51.672;7.834;2022-09-09T10:47:13;22.10;75.30
58809;DHT22;44579;51.672;7.834;2022-09-09T10:55:18;22.10;75.30
58809;DHT22;44579;51.672;7.834;2022-09-09T10:57:48;22.10;75.40
58809;DHT22;44579;51.672;7.834;2022-09-09T11:00:24;22.10;75.40
58809;DHT22;44579;51.672;7.834;2022-09-09T11:02:57;22.00;75.10
58809;DHT22;44579;51.672;7.834;2022-09-09T11:08:21;22.00;74.60
58809;DHT22;44579;51.672;7.834;2022-09-09T11:11:00;22.10;74.70
58809;DHT22;44579;51.672;7.834;2022-09-09T11:13:46;22.10;74.60
58809;DHT22;44579;51.672;7.834;2022-09-09T11:21:45;22.30;74.00
58809;DHT22;44579;51.672;7.834;2022-09-09T11:27:06;22.40;73.40
58809;DHT22;44579;51.672;7.834;2022-09-09T11:32:53;22.40;72.50
58809;DHT22;44579;51.672;7.834;2022-09-09T11:36:05;22.40;72.40
58809;DHT22;44579;51.672;7.834;2022-09-09T11:41:46;22.50;71.70
58809;DHT22;44579;51.672;7.834;2022-09-09T11:44:19;22.50;71.60
58809;DHT22;44579;51.672;7.834;2022-09-09T11:46:51;22.50;71.20
58809;DHT22;44579;51.672;7.834;2022-09-09T11:49:42;22.60;72.40
58809;DHT22;44579;51.672;7.834;2022-09-09T11:52:36;22.80;71.30
58809;DHT22;44579;51.672;7.834;2022-09-09T11:55:31;22.90;72.00
58809;DHT22;44579;51.672;7.834;2022-09-09T11:58:03;23.00;72.00
58809;DHT22;44579;51.672;7.834;2022-09-09T12:00:43;23.00;72.10
58809;DHT22;44579;51.672;7.834;2022-09-09T12:06:18;23.10;71.70
58809;DHT22;44579;51.672;7.834;2022-09-09T12:08:53;23.00;71.30
58809;DHT22;44579;51.672;7.834;2022-09-09T12:11:29;23.00;71.60
58809;DHT22;44579;51.672;7.834;2022-09-09T12:13:59;22.80;71.80
58809;DHT22;44579;51.672;7.834;2022-09-09T12:16:30;22.70;71.80
58809;DHT22;44579;51.672;7.834;2022-09-09T12:19:14;22.70;71.40
58809;DHT22;44579;51.672;7.834;2022-09-09T12:24:11;22.50;71.70
58809;DHT22;44579;51.672;7.834;2022-09-09T12:27:02;22.50;71.60
58809;DHT22;44579;51.672;7.834;2022-09-09T12:29:47;22.40;70.20
58809;DHT22;44579;51.672;7.834;2022-09-09T12:32:25;22.40;71.00
58809;DHT22;44579;51.672;7.834;2022-09-09T12:35:03;22.40;70.80
58809;DHT22;44579;51.672;7.834;2022-09-09T12:37:37;22.50;70.60
58809;DHT22;44579;51.672;7.834;2022-09-09T12:40:20;22.50;70.50
58809;DHT22;44579;51.672;7.834;2022-09-09T12:42:48;22.60;70.20
58809;DHT22;44579;51.672;7.834;2022-09-09T12:45:22;22.60;69.90
58809;DHT22;44579;51.672;7.834;2022-09-09T12:47:55;22.60;69.80
58809;DHT22;44579;51.672;7.834;2022-09-09T12:50:29;22.60;70.00
58809;DHT22;44579;51.672;7.834;2022-09-09T12:53:02;22.70;69.80
58809;DHT22;44579;51.672;7.834;2022-09-09T12:55:32;22.70;69.60
58809;DHT22;44579;51.672;7.834;2022-09-09T12:58:02;22.90;69.10
58809;DHT22;44579;51.672;7.834;2022-09-09T13:00:34;23.10;68.70
58809;DHT22;44579;51.672;7.834;2022-09-09T13:03:13;23.10;68.40
58809;DHT22;44579;51.672;7.834;2022-09-09T13:05:42;23.20;68.60
58809;DHT22;44579;51.672;7.834;2022-09-09T13:08:11;23.10;68.70
58809;DHT22;44579;51.672;7.834;2022-09-09T13:10:51;23.10;68.60
58809;DHT22;44579;51.672;7.834;2022-09-09T13:13:31;23.10;68.10
58809;DHT22;44579;51.672;7.834;2022-09-09T13:16:02;23.10;68.00
58809;DHT22;44579;51.672;7.834;2022-09-09T13:18:35;23.10;67.80
58809;DHT22;44579;51.672;7.834;2022-09-09T13:21:04;23.10;67.40
58809;DHT22;44579;51.672;7.834;2022-09-09T13:23:34;23.00;67.60
58809;DHT22;44579;51.672;7.834;2022-09-09T13:26:23;23.00;67.60
58809;DHT22;44579;51.672;7.834;2022-09-09T13:28:51;22.90;67.60
58809;DHT22;44579;51.672;7.834;2022-09-09T13:31:37;22.70;67.60
58809;DHT22;44579;51.672;7.834;2022-09-09T13:34:22;22.50;67.90
58809;DHT22;44579;51.672;7.834;2022-09-09T13:37:02;22.40;68.20
58809;DHT22;44579;51.672;7.834;2022-09-09T13:39:30;22.20;68.20
58809;DHT22;44579;51.672;7.834;2022-09-09T13:41:57;22.20;68.30
58809;DHT22;44579;51.672;7.834;2022-09-09T13:44:29;22.20;68.20
58809;DHT22;44579;51.672;7.834;2022-09-09T13:49:35;22.40;67.40
58809;DHT22;44579;51.672;7.834;2022-09-09T13:52:20;22.60;67.20
58809;DHT22;44579;51.672;7.834;2022-09-09T13:54:51;22.60;66.40
58809;DHT22;44579;51.672;7.834;2022-09-09T13:57:20;22.60;66.40
58809;DHT22;44579;51.672;7.834;2022-09-09T13:59:48;22.60;66.00
58809;DHT22;44579;51.672;7.834;2022-09-09T14:02:32;22.60;65.90
58809;DHT22;44579;51.672;7.834;2022-09-09T14:05:00;22.70;65.80
58809;DHT22;44579;51.672;7.834;2022-09-09T14:07:27;22.70;65.60
58809;DHT22;44579;51.672;7.834;2022-09-09T14:09:54;22.70;65.30
58809;DHT22;44579;51.672;7.834;2022-09-09T14:12:21;22.80;65.10
58809;DHT22;44579;51.672;7.834;2022-09-09T14:14:48;22.80;64.90
58809;DHT22;44579;51.672;7.834;2022-09-09T14:17:14;22.70;64.80
58809;DHT22;44579;51.672;7.834;2022-09-09T14:19:41;22.70;64.90
58809;DHT22;44579;51.672;7.834;2022-09-09T14:22:09;22.70;65.00
58809;DHT22;44579;51.672;7.834;2022-09-09T14:24:36;22.60;65.10
58809;DHT22;44579;51.672;7.834;2022-09-09T14:27:02;22.60;65.10
58809;DHT22;44579;51.672;7.834;2022-09-09T14:29:29;22.60;65.10
58809;DHT22;44579;51.672;7.834;2022-09-09T14:31:56;22.60;64.90
58809;DHT22;44579;51.672;7.834;2022-09-09T14:34:23;22.60;64.90
58809;DHT22;44579;51.672;7.834;2022-09-09T14:36:49;22.60;64.70
58809;DHT22;44579;51.672;7.834;2022-09-09T14:39:17;22.60;64.70
58809;DHT22;44579;51.672;7.834;2022-09-09T14:41:44;22.60;64.50
58809;DHT22;44579;51.672;7.834;2022-09-09T14:44:12;22.60;64.50
58809;DHT22;44579;51.672;7.834;2022-09-09T14:46:39;22.60;64.50
58809;DHT22;44579;51.672;7.834;2022-09-09T14:49:05;22.60;64.40
58809;DHT22;44579;51.672;7.834;2022-09-09T14:51:32;22.60;64.20
58809;DHT22;44579;51.672;7.834;2022-09-09T14:53:59;22.60;64.20
58809;DHT22;44579;51.672;7.834;2022-09-09T14:56:27;22.50;64.20
58809;DHT22;44579;51.672;7.834;2022-09-09T14:58:55;22.60;64.50
58809;DHT22;44579;51.672;7.834;2022-09-09T15:01:23;22.50;64.50
58809;DHT22;44579;51.672;7.834;2022-09-09T15:03:55;22.40;64.50
58809;DHT22;44579;51.672;7.834;2022-09-09T15:06:23;22.40;64.50
58809;DHT22;44579;51.672;7.834;2022-09-09T15:08:51;22.30;64.40
58809;DHT22;44579;51.672;7.834;2022-09-09T15:11:19;22.40;64.60
58809;DHT22;44579;51.672;7.834;2022-09-09T15:13:46;22.30;64.30
58809;DHT22;44579;51.672;7.834;2022-09-09T15:16:18;22.30;64.30
58809;DHT22;44579;51.672;7.834;2022-09-09T15:18:46;22.40;64.30
58809;DHT22;44579;51.672;7.834;2022-09-09T15:21:17;22.40;64.10
58809;DHT22;44579;51.672;7.834;2022-09-09T15:23:45;22.40;63.90
58809;DHT22;44579;51.672;7.834;2022-09-09T15:26:13;22.40;63.90
58809;DHT22;44579;51.672;7.834;2022-09-09T15:28:41;22.40;63.70
58809;DHT22;44579;51.672;7.834;2022-09-09T15:31:16;22.50;63.70
58809;DHT22;44579;51.672;7.834;2022-09-09T15:33:51;22.40;63.50
58809;DHT22;44579;51.672;7.834;2022-09-09T15:36:20;22.50;63.30
58809;DHT22;44579;51.672;7.834;2022-09-09T15:38:49;22.60;63.40
58809;DHT22;44579;51.672;7.834;2022-09-09T15:41:20;22.60;63.00
58809;DHT22;44579;51.672;7.834;2022-09-09T15:43:52;22.60;62.90
58809;DHT22;44579;51.672;7.834;2022-09-09T15:46:56;22.50;62.80
58809;DHT22;44579;51.672;7.834;2022-09-09T15:49:16;22.50;62.90
58809;DHT22;44579;51.672;7.834;2022-09-09T15:51:56;22.40;62.90
58809;DHT22;44579;51.672;7.834;2022-09-09T15:54:25;22.30;63.00
58809;DHT22;44579;51.672;7.834;2022-09-09T15:56:55;22.20;63.30
58809;DHT22;44579;51.672;7.834;2022-09-09T15:59:23;22.00;63.50
58809;DHT22;44579;51.672;7.834;2022-09-09T16:01:51;21.90;63.70
58809;DHT22;44579;51.672;7.834;2022-09-09T16:04:19;21.80;64.80
58809;DHT22;44579;51.672;7.834;2022-09-09T16:06:54;21.70;64.00
58809;DHT22;44579;51.672;7.834;2022-09-09T16:09:21;21.70;64.10
58809;DHT22;44579;51.672;7.834;2022-09-09T16:11:48;21.60;64.10
58809;DHT22;44579;51.672;7.834;2022-09-09T16:14:15;21.50;64.10
58809;DHT22;44579;51.672;7.834;2022-09-09T16:16:42;21.40;64.30
58809;DHT22;44579;51.672;7.834;2022-09-09T16:19:11;21.40;64.50
58809;DHT22;44579;51.672;7.834;2022-09-09T16:21:44;21.30;64.60
58809;DHT22;44579;51.672;7.834;2022-09-09T16:24:13;21.20;64.70
58809;DHT22;44579;51.672;7.834;2022-09-09T16:26:49;21.00;64.80
58809;DHT22;44579;51.672;7.834;2022-09-09T16:29:17;20.80;65.00
58809;DHT22;44579;51.672;7.834;2022-09-09T16:31:45;20.50;65.50
58809;DHT22;44579;51.672;7.834;2022-09-09T16:34:15;20.40;66.00
58809;DHT22;44579;51.672;7.834;2022-09-09T16:36:42;20.20;66.20
58809;DHT22;44579;51.672;7.834;2022-09-09T16:39:15;20.00;66.40
58809;DHT22;44579;51.672;7.834;2022-09-09T16:41:43;20.00;66.50
58809;DHT22;44579;51.672;7.834;2022-09-09T16:44:12;19.80;66.50
58809;DHT22;44579;51.672;7.834;2022-09-09T16:46:41;19.80;66.70
58809;DHT22;44579;51.672;7.834;2022-09-09T16:49:12;19.70;66.70
58809;DHT22;44579;51.672;7.834;2022-09-09T16:51:50;19.60;66.80
58809;DHT22;44579;51.672;7.834;2022-09-09T16:54:20;19.60;67.00
58809;DHT22;44579;51.672;7.834;2022-09-09T16:56:48;19.50;67.10
58809;DHT22;44579;51.672;7.834;2022-09-09T16:59:20;19.50;67.20
58809;DHT22;44579;51.672;7.834;2022-09-09T17:01:49;19.50;67.30
58809;DHT22;44579;51.672;7.834;2022-09-09T17:04:27;19.60;67.20
58809;DHT22;44579;51.672;7.834;2022-09-09T17:06:55;19.70;66.80
58809;DHT22;44579;51.672;7.834;2022-09-09T17:09:25;19.70;66.50
58809;DHT22;44579;51.672;7.834;2022-09-09T17:11:55;19.80;66.40
58809;DHT22;44579;51.672;7.834;2022-09-09T17:14:22;19.90;66.30
58809;DHT22;44579;51.672;7.834;2022-09-09T17:16:50;20.00;66.30
58809;DHT22;44579;51.672;7.834;2022-09-09T17:19:17;20.10;66.20
58809;DHT22;44579;51.672;7.834;2022-09-09T17:21:44;20.10;66.20
58809;DHT22;44579;51.672;7.834;2022-09-09T17:24:34;20.00;66.40
58809;DHT22;44579;51.672;7.834;2022-09-09T17:27:00;20.00;66.80
58809;DHT22;44579;51.672;7.834;2022-09-09T17:29:29;19.90;67.00
58809;DHT22;44579;51.672;7.834;2022-09-09T17:31:55;19.90;67.20
58809;DHT22;44579;51.672;7.834;2022-09-09T17:34:23;19.90;67.50
58809;DHT22;44579;51.672;7.834;2022-09-09T17:36:50;19.80;67.60
58809;DHT22;44579;51.672;7.834;2022-09-09T17:39:18;19.70;67.90
58809;DHT22;44579;51.672;7.834;2022-09-09T17:41:45;19.70;68.20
58809;DHT22;44579;51.672;7.834;2022-09-09T17:44:12;19.60;68.30
58809;DHT22;44579;51.672;7.834;2022-09-09T17:46:40;19.60;68.40
58809;DHT22;44579;51.672;7.834;2022-09-09T17:49:16;19.60;68.60
58809;DHT22;44579;51.672;7.834;2022-09-09T17:51:44;19.50;68.80